Inukjuak Airport
CYPH : now visible

Airfield :











YOU CAN JOIN US ON...

 
LOGIN :

Register | Disclaimer

   EN    FR    IT 

 









Legend :    VFR   Marginal VFR   IFR   Intensive IFR   Very Intensive IFR
Visi :
Ceiling :
>= 8 km
>= 3000ft
5 to 8 km
1000 to 3000 ft
1500m to 5 km
500 to 1000 ft
800 to 1500m
200 to 500 ft
< 800m
< 200 ft
Symbols :   Thunderstorms  Fog  Heavy snow  Heavy precipitations  Wind > 20 kt






- Airport Elevation : 83 ft
- IATA code : YPH


CYPH - Inukjuak

CURRENT METAR :
  • 080825Z AUTO 17027G37KT 1/4SM +SN VV007 M05/M07 A2929 RMK PRESFR SLP923

EXPIRED METARs :
  • 080803Z AUTO 17025G35KT 3/8SM SN VV010 M06/M07 A2932 RMK PRESFR SLP931
  • 080745Z AUTO 18027G35KT 1/4SM +SN VV010 M06/M07 A2934 RMK PRESFR SLP938
  • 080722Z AUTO 18023G32KT 3/8SM SN VV010 M06/M07 A2936 RMK PRESFR SLP947
  • 080715Z AUTO 18022G35KT 3/8SM SN VV008 M06/M07 A2937 RMK PRESFR SLP948
  • 080700Z AUTO 19022G33KT 1/2SM SN VV008 M06/M07 A2939 RMK SLP955
  • 080658Z AUTO 19023G33KT 3/8SM SN VV008 M06/M07 A2939 RMK PRESFR SLP955
  • 080642Z AUTO 19019G29KT 3/8SM SN VV007 M06/M08 A2940 RMK PRESFR SLP961
  • 080600Z AUTO 19015G21KT 1SM -SN VV014 M07/M09 A2945 RMK PRESFR SLP976
  • 080543Z AUTO 20016G25KT 1SM -SN OVC022 M07/M09 A2947 RMK PRESFR SLP983

TAF AMD TAF CYPH
Valid from the 08 at 08:00 until the 08 at 18:00 UTC


080806Z 0808/0818 18020G35KT 3/4SM -SN BLSN OVC012
TEMPO 0808/0818 3SM -SN OVC025
BECMG 0813/0815 23020G30KT RMK FCST BASED ON AUTO OBS. NXT FCST BY 081200Z



MET'MAP, your aeronautical weather chart ! - Copyright ORBIFLY December 2007 - Disclaimer

ORBIFLY MET'MAP TEAM :

Programming & Development : Alexandra Zaïnal
Concept & original design : Baudouin d'Aumeries
Assistance for programming : Marc-Olivier Méhu
Technical & hardware support : Manuel Goepfert

Contact : metmap@orbifly.com




SOURCES & CREDITS :

   NOAA       Earth
Advisory